createdAt,value
2023-01-25T00:00:31.080Z,36.85
2023-01-25T00:02:58.031Z,40.33
2023-01-25T00:05:25.032Z,34.08
2023-01-25T00:07:51.875Z,37.80
2023-01-25T00:10:19.014Z,32.47
2023-01-25T00:12:45.802Z,38.45
2023-01-25T00:15:12.629Z,35.00
2023-01-25T00:17:39.380Z,37.55
2023-01-25T00:20:07.120Z,34.30
2023-01-25T00:22:33.926Z,38.33
2023-01-25T00:25:00.667Z,30.25
2023-01-25T00:27:27.446Z,38.17
2023-01-25T00:29:54.271Z,39.38
2023-01-25T00:32:21.158Z,34.13
2023-01-25T00:34:54.668Z,37.63
2023-01-25T00:37:25.571Z,34.13
2023-01-25T00:39:52.735Z,35.35
2023-01-25T00:42:20.348Z,35.35
2023-01-25T00:44:48.335Z,34.20
2023-01-25T00:47:16.145Z,30.45
2023-01-25T00:49:44.469Z,33.72
2023-01-25T00:52:11.430Z,35.80
2023-01-25T00:54:38.636Z,31.33
2023-01-25T00:57:07.085Z,33.97
2023-01-25T00:59:37.031Z,28.92
2023-01-25T01:02:04.285Z,33.42
2023-01-25T01:04:31.457Z,33.10
2023-01-25T01:06:58.283Z,30.90
2023-01-25T01:09:25.248Z,30.38
2023-01-25T01:11:52.358Z,32.70
2023-01-25T01:14:20.403Z,34.97
2023-01-25T01:16:47.721Z,35.55
2023-01-25T01:19:14.725Z,33.53
2023-01-25T01:21:41.993Z,34.95
2023-01-25T01:24:10.310Z,34.10
2023-01-25T01:26:37.244Z,35.60
2023-01-25T01:29:04.677Z,29.67
2023-01-25T01:31:34.785Z,39.47
2023-01-25T01:34:02.010Z,35.42
2023-01-25T01:36:30.421Z,37.53
2023-01-25T01:38:59.562Z,38.78
2023-01-25T01:41:26.767Z,31.92
2023-01-25T01:43:54.712Z,33.78
2023-01-25T01:46:34.485Z,40.97
2023-01-25T01:49:02.926Z,37.10
2023-01-25T01:51:41.739Z,41.05
2023-01-25T01:54:27.511Z,38.45
2023-01-25T01:57:18.099Z,43.58
2023-01-25T01:59:50.645Z,39.70
2023-01-25T02:02:17.611Z,46.75
2023-01-25T02:04:47.166Z,42.20
2023-01-25T02:07:13.873Z,37.72
2023-01-25T02:09:41.379Z,37.00
2023-01-25T02:12:09.569Z,36.75
2023-01-25T02:14:39.617Z,38.03
2023-01-25T02:17:06.410Z,34.05
2023-01-25T02:19:58.711Z,29.98
2023-01-25T02:22:44.820Z,34.85
2023-01-25T02:25:13.303Z,35.20
2023-01-25T02:27:53.205Z,29.50
2023-01-25T02:30:20.164Z,28.17
2023-01-25T02:32:46.900Z,32.33
2023-01-25T02:35:21.939Z,28.48
2023-01-25T02:37:50.334Z,24.42
2023-01-25T02:40:22.902Z,30.30
2023-01-25T02:42:49.653Z,31.67
2023-01-25T02:45:19.584Z,27.30
2023-01-25T02:47:46.534Z,37.67
2023-01-25T02:50:15.109Z,31.77
2023-01-25T02:52:42.705Z,39.80
2023-01-25T02:55:10.028Z,30.30
2023-01-25T02:57:36.987Z,42.30
2023-01-25T03:00:05.800Z,36.63
2023-01-25T03:02:32.782Z,42.13
2023-01-25T03:04:59.584Z,41.10
2023-01-25T03:07:26.365Z,45.10
2023-01-25T03:09:53.134Z,41.00
2023-01-25T03:12:19.861Z,35.13
2023-01-25T03:14:46.607Z,37.78
2023-01-25T03:17:13.364Z,37.78
2023-01-25T03:19:40.153Z,38.28
2023-01-25T03:22:07.715Z,37.45
2023-01-25T03:24:34.537Z,36.10
2023-01-25T03:27:14.303Z,38.15
2023-01-25T03:29:41.826Z,36.38
2023-01-25T03:32:09.305Z,40.28
2023-01-25T03:34:36.572Z,42.83
2023-01-25T03:37:03.752Z,37.45
2023-01-25T03:39:33.573Z,38.88
2023-01-25T03:42:00.308Z,31.52
2023-01-25T03:44:27.217Z,44.28
2023-01-25T03:46:53.976Z,38.42
2023-01-25T03:49:20.822Z,39.22
2023-01-25T03:51:47.608Z,39.03
2023-01-25T03:54:14.373Z,36.53
2023-01-25T03:56:41.117Z,32.53
2023-01-25T03:59:08.124Z,35.20
2023-01-25T04:01:35.038Z,35.55
2023-01-25T04:04:01.825Z,33.05
2023-01-25T04:06:28.650Z,35.80
2023-01-25T04:08:55.458Z,40.47
2023-01-25T04:11:22.242Z,32.25
2023-01-25T04:13:49.038Z,34.03
2023-01-25T04:16:15.851Z,28.98
2023-01-25T04:18:42.675Z,30.83
2023-01-25T04:21:09.459Z,30.77
2023-01-25T04:23:36.198Z,33.33
2023-01-25T04:26:05.853Z,30.83
2023-01-25T04:28:33.796Z,32.08
2023-01-25T04:31:01.423Z,31.35
2023-01-25T04:33:28.192Z,30.52
2023-01-25T04:35:54.981Z,29.90
2023-01-25T04:38:21.901Z,29.15
2023-01-25T04:40:48.658Z,28.58
2023-01-25T04:43:19.265Z,29.58
2023-01-25T04:45:46.759Z,31.00
2023-01-25T04:48:14.437Z,24.83
2023-01-25T04:50:42.485Z,30.98
2023-01-25T04:53:10.865Z,24.20
2023-01-25T04:55:37.621Z,30.60
2023-01-25T04:58:05.010Z,26.75
2023-01-25T05:00:33.187Z,29.20
2023-01-25T05:03:00.024Z,31.23
2023-01-25T05:05:26.804Z,31.45
2023-01-25T05:07:53.565Z,27.65
2023-01-25T05:10:20.447Z,24.25
2023-01-25T05:12:47.269Z,28.52
2023-01-25T05:15:14.328Z,30.00
2023-01-25T05:17:41.113Z,25.40
2023-01-25T05:20:08.782Z,27.90
2023-01-25T05:22:35.554Z,33.38
2023-01-25T05:25:03.808Z,29.58
2023-01-25T05:27:30.542Z,27.20
2023-01-25T05:29:57.759Z,27.35
2023-01-25T05:32:24.897Z,27.95
2023-01-25T05:34:51.772Z,22.95
2023-01-25T05:37:20.766Z,25.67
2023-01-25T05:39:47.787Z,32.63
2023-01-25T05:42:17.665Z,28.67
2023-01-25T05:44:47.369Z,27.25
2023-01-25T05:47:16.596Z,26.90
2023-01-25T05:49:43.549Z,25.33
2023-01-25T05:52:17.551Z,28.70
2023-01-25T05:54:44.490Z,29.60
2023-01-25T05:57:11.283Z,26.83
2023-01-25T05:59:38.042Z,27.75
2023-01-25T06:02:04.776Z,22.75
2023-01-25T06:04:31.724Z,23.85
2023-01-25T06:06:58.621Z,22.90
2023-01-25T06:09:26.439Z,24.23
2023-01-25T06:11:53.207Z,27.58
2023-01-25T06:14:20.036Z,23.92
2023-01-25T06:16:46.755Z,27.88
2023-01-25T06:19:14.276Z,25.25
2023-01-25T06:21:41.040Z,22.40
2023-01-25T06:24:08.147Z,25.30
2023-01-25T06:26:34.918Z,23.10
2023-01-25T06:29:01.650Z,23.33
2023-01-25T06:31:28.482Z,26.35
2023-01-25T06:33:55.336Z,23.45
2023-01-25T06:36:22.987Z,24.20
2023-01-25T06:38:51.085Z,25.83
2023-01-25T06:41:18.424Z,23.95
2023-01-25T06:43:45.629Z,23.40
2023-01-25T06:46:12.737Z,23.95
2023-01-25T06:48:41.084Z,20.98
2023-01-25T06:51:10.453Z,20.33
2023-01-25T06:53:40.541Z,21.17
2023-01-25T06:56:20.718Z,22.15
2023-01-25T06:58:48.549Z,17.55
2023-01-25T07:01:21.295Z,24.25
2023-01-25T07:03:52.873Z,20.95
2023-01-25T07:06:20.932Z,20.58
2023-01-25T07:08:48.213Z,23.15
2023-01-25T07:11:16.010Z,24.00
2023-01-25T07:13:45.836Z,26.63
2023-01-25T07:16:17.810Z,25.13
2023-01-25T07:18:44.716Z,26.90
2023-01-25T07:21:16.976Z,24.33
2023-01-25T07:26:21.790Z,26.10
2023-01-25T07:28:49.282Z,20.35
2023-01-25T07:31:17.500Z,24.77
2023-01-25T07:33:47.411Z,26.17
2023-01-25T07:36:14.284Z,25.90
2023-01-25T07:38:41.181Z,29.45
2023-01-25T07:41:08.037Z,37.35
2023-01-25T07:43:34.873Z,33.33
2023-01-25T07:46:03.797Z,27.30
2023-01-25T07:48:30.873Z,28.08
2023-01-25T07:51:22.775Z,29.00
2023-01-25T07:53:52.152Z,27.75
2023-01-25T07:56:20.118Z,26.63
2023-01-25T07:58:47.698Z,24.73
2023-01-25T08:01:17.549Z,22.95
2023-01-25T08:03:44.934Z,29.98
2023-01-25T08:06:12.206Z,30.40
2023-01-25T08:08:45.646Z,29.10
2023-01-25T08:11:18.693Z,24.88
2023-01-25T08:13:49.763Z,31.55
2023-01-25T08:16:18.606Z,32.10
2023-01-25T08:18:57.682Z,38.17
2023-01-25T08:21:29.961Z,30.13
2023-01-25T08:24:02.287Z,29.48
2023-01-25T08:26:29.288Z,30.92
2023-01-25T08:28:56.455Z,32.38
2023-01-25T08:31:28.362Z,30.85
2023-01-25T08:33:56.006Z,28.15
2023-01-25T08:36:27.980Z,34.58
2023-01-25T08:41:23.209Z,34.22
2023-01-25T08:43:52.547Z,34.63
2023-01-25T08:46:19.915Z,30.67
2023-01-25T08:48:46.772Z,34.03
2023-01-25T08:51:15.978Z,27.10
2023-01-25T08:53:43.213Z,35.28
2023-01-25T08:56:12.430Z,34.10
2023-01-25T08:58:41.771Z,29.73
2023-01-25T09:01:11.047Z,31.05
2023-01-25T09:03:45.864Z,31.58
2023-01-25T09:06:13.097Z,31.02
2023-01-25T09:08:40.228Z,30.45
2023-01-25T09:11:09.575Z,29.63
2023-01-25T09:13:36.476Z,26.63
2023-01-25T09:16:09.948Z,29.45
2023-01-25T09:18:38.121Z,29.65
2023-01-25T09:23:51.210Z,30.33
2023-01-25T09:26:31.524Z,36.03
2023-01-25T09:28:59.363Z,31.98
2023-01-25T09:31:28.285Z,29.48
2023-01-25T09:33:56.903Z,28.10
2023-01-25T09:36:23.808Z,28.35
2023-01-25T09:38:50.596Z,31.63
2023-01-25T09:41:50.455Z,31.70
2023-01-25T09:44:33.397Z,32.00
2023-01-25T09:47:05.043Z,31.67
2023-01-25T09:49:50.642Z,28.25
2023-01-25T09:52:32.176Z,24.45
2023-01-25T09:54:59.077Z,29.57
2023-01-25T09:57:34.518Z,30.88
2023-01-25T10:00:10.658Z,28.00
2023-01-25T10:02:52.112Z,27.80
2023-01-25T10:05:31.154Z,30.63
2023-01-25T10:08:06.955Z,28.25
2023-01-25T10:10:38.743Z,27.88
2023-01-25T10:13:11.524Z,27.30
2023-01-25T10:15:48.133Z,35.03
2023-01-25T10:18:39.753Z,26.45
2023-01-25T10:21:10.897Z,30.00
2023-01-25T10:24:15.271Z,30.73
2023-01-25T10:26:44.904Z,26.58
2023-01-25T10:29:22.918Z,22.63
2023-01-25T10:31:54.834Z,32.33
2023-01-25T10:34:44.066Z,27.30
2023-01-25T10:37:31.086Z,27.23
2023-01-25T10:40:13.782Z,29.48
2023-01-25T10:42:45.301Z,25.30
2023-01-25T10:45:16.646Z,27.48
2023-01-25T10:47:48.460Z,29.23
2023-01-25T10:50:47.464Z,31.00
2023-01-25T10:53:27.585Z,25.52
2023-01-25T10:56:09.302Z,34.42
2023-01-25T10:58:46.096Z,29.52
2023-01-25T11:01:28.608Z,27.05
2023-01-25T11:03:55.877Z,33.70
2023-01-25T11:06:29.756Z,27.80
2023-01-25T11:08:56.546Z,29.48
2023-01-25T11:11:30.385Z,27.58
2023-01-25T11:13:57.503Z,32.60
2023-01-25T11:16:47.199Z,29.98
2023-01-25T11:19:32.626Z,28.13
2023-01-25T11:22:00.764Z,28.08
2023-01-25T11:24:35.988Z,31.52
2023-01-25T11:27:27.191Z,22.92
2023-01-25T11:30:09.942Z,26.98
2023-01-25T11:32:40.263Z,28.52
2023-01-25T11:35:16.247Z,29.98
2023-01-25T11:37:58.766Z,33.30
2023-01-25T11:40:43.277Z,37.33
2023-01-25T11:43:47.070Z,36.83
2023-01-25T11:46:26.015Z,38.13
2023-01-25T11:49:10.744Z,36.28
2023-01-25T11:52:06.801Z,30.10
2023-01-25T11:55:05.462Z,33.72
2023-01-25T11:57:37.701Z,31.75
2023-01-25T12:03:17.055Z,32.60
2023-01-25T12:06:16.785Z,30.65
2023-01-25T12:08:49.413Z,31.60
2023-01-25T12:11:39.774Z,32.17
2023-01-25T12:14:34.236Z,33.88
2023-01-25T12:17:26.587Z,33.92
2023-01-25T12:20:18.974Z,34.42
2023-01-25T12:23:07.416Z,36.60
2023-01-25T12:25:42.590Z,29.88
2023-01-25T12:28:19.863Z,32.78
2023-01-25T12:31:10.908Z,43.60
2023-01-25T12:33:47.707Z,38.40
2023-01-25T12:36:21.781Z,33.72
2023-01-25T12:39:05.088Z,40.90
2023-01-25T12:41:54.166Z,30.20
2023-01-25T12:44:23.704Z,30.30
2023-01-25T12:47:15.601Z,31.67
2023-01-25T12:49:53.858Z,29.10
2023-01-25T12:52:32.148Z,40.40
2023-01-25T12:55:05.493Z,39.13
2023-01-25T12:57:47.177Z,36.20
2023-01-25T13:00:22.225Z,32.08
2023-01-25T13:03:06.958Z,38.22
2023-01-25T13:06:09.663Z,35.85
2023-01-25T13:11:44.745Z,39.03
2023-01-25T13:14:20.545Z,37.90
2023-01-25T13:16:50.288Z,38.97
2023-01-25T13:19:30.362Z,35.75
2023-01-25T13:21:58.518Z,32.38
2023-01-25T13:24:27.771Z,33.70
2023-01-25T13:26:54.495Z,32.33
2023-01-25T13:29:36.007Z,34.17
2023-01-25T13:32:05.049Z,39.22
2023-01-25T13:34:44.313Z,34.08
2023-01-25T13:37:21.137Z,33.63
2023-01-25T13:39:50.290Z,32.90
2023-01-25T13:42:25.816Z,36.45
2023-01-25T13:45:01.906Z,38.45
2023-01-25T13:47:38.266Z,34.00
2023-01-25T13:50:27.650Z,35.90
2023-01-25T13:53:16.939Z,35.33
2023-01-25T13:55:50.024Z,44.22
2023-01-25T13:58:16.761Z,38.60
2023-01-25T14:01:04.258Z,42.67
2023-01-25T14:03:35.468Z,39.47
2023-01-25T14:06:04.342Z,42.33
2023-01-25T14:08:31.938Z,43.53
2023-01-25T14:10:59.102Z,39.78
2023-01-25T14:13:25.949Z,42.03
2023-01-25T14:15:55.614Z,36.13
2023-01-25T14:18:32.149Z,38.95
2023-01-25T14:21:18.346Z,39.08
2023-01-25T14:23:45.791Z,39.92
2023-01-25T14:26:34.224Z,43.58
2023-01-25T14:29:02.576Z,36.60
2023-01-25T14:31:35.941Z,37.63
2023-01-25T14:34:05.023Z,36.90
2023-01-25T14:36:34.750Z,50.85
2023-01-25T14:39:04.474Z,48.53
2023-01-25T14:41:59.264Z,53.53
2023-01-25T14:44:29.100Z,45.58
2023-01-25T14:47:24.802Z,36.22
2023-01-25T14:49:51.693Z,34.33
2023-01-25T14:52:20.587Z,34.88
2023-01-25T14:54:52.631Z,34.63
2023-01-25T14:57:34.571Z,32.42
2023-01-25T15:00:04.947Z,33.00
2023-01-25T15:02:39.265Z,31.73
2023-01-25T15:05:17.551Z,32.63
2023-01-25T15:07:46.232Z,34.22
2023-01-25T15:10:31.271Z,30.65
2023-01-25T15:13:14.186Z,29.15
2023-01-25T15:15:53.642Z,37.33
2023-01-25T15:18:51.514Z,33.88
2023-01-25T15:21:20.536Z,34.60
2023-01-25T15:23:49.051Z,31.75
2023-01-25T15:26:25.106Z,33.05
2023-01-25T15:28:54.298Z,34.60
2023-01-25T15:31:26.073Z,33.28
2023-01-25T15:33:53.339Z,28.38
2023-01-25T15:36:20.438Z,33.72
2023-01-25T15:38:47.459Z,34.08
2023-01-25T15:41:18.809Z,27.63
2023-01-25T15:43:47.559Z,28.00
2023-01-25T15:46:21.919Z,25.20
2023-01-25T15:48:50.080Z,29.35
2023-01-25T15:51:17.356Z,35.33
2023-01-25T15:53:44.521Z,32.45
2023-01-25T15:56:15.933Z,38.85
2023-01-25T15:58:46.042Z,43.08
2023-01-25T16:01:13.157Z,35.60
2023-01-25T16:03:41.569Z,33.75
2023-01-25T16:06:28.847Z,40.25
2023-01-25T16:08:55.838Z,36.25
2023-01-25T16:11:22.615Z,37.38
2023-01-25T16:13:49.420Z,30.95
2023-01-25T16:16:22.620Z,35.40
2023-01-25T16:18:49.805Z,36.58
2023-01-25T16:21:16.912Z,30.73
2023-01-25T16:23:43.734Z,34.60
2023-01-25T16:26:18.747Z,30.48
2023-01-25T16:28:45.541Z,30.88
2023-01-25T16:31:30.254Z,34.70
2023-01-25T16:33:58.443Z,39.05
2023-01-25T16:36:25.390Z,32.35
2023-01-25T16:38:52.444Z,35.13
2023-01-25T16:41:19.305Z,39.60
2023-01-25T16:43:48.606Z,39.53
2023-01-25T16:46:21.122Z,34.42
2023-01-25T16:48:49.209Z,37.35
2023-01-25T16:51:21.822Z,32.20
2023-01-25T16:53:50.188Z,37.50
2023-01-25T16:56:22.379Z,31.10
2023-01-25T17:01:18.815Z,37.10
2023-01-25T17:03:46.187Z,36.85
2023-01-25T17:06:21.351Z,33.38
2023-01-25T17:08:49.197Z,30.75
2023-01-25T17:11:18.748Z,40.50
2023-01-25T17:13:51.952Z,37.22
2023-01-25T17:16:20.042Z,39.75
2023-01-25T17:18:47.484Z,36.75
2023-01-25T17:21:16.880Z,34.83
2023-01-25T17:23:44.773Z,38.40
2023-01-25T17:26:14.175Z,35.20
2023-01-25T17:28:41.774Z,35.83
2023-01-25T17:31:20.698Z,37.20
2023-01-25T17:33:47.935Z,36.38
2023-01-25T17:36:15.343Z,39.25
2023-01-25T17:38:42.584Z,40.20
2023-01-25T17:41:12.319Z,37.58
2023-01-25T17:43:39.552Z,38.08
2023-01-25T17:46:14.735Z,39.58
2023-01-25T17:48:41.718Z,29.77
2023-01-25T17:51:08.568Z,36.05
2023-01-25T17:53:35.487Z,34.55
2023-01-25T17:56:04.760Z,32.58
2023-01-25T17:58:34.114Z,34.63
2023-01-25T18:01:13.023Z,33.83
2023-01-25T18:03:41.026Z,30.23
2023-01-25T18:06:09.568Z,31.17
2023-01-25T18:08:41.154Z,35.42
2023-01-25T18:11:10.432Z,33.15
2023-01-25T18:13:44.997Z,30.15
2023-01-25T18:16:12.379Z,38.67
2023-01-25T18:18:40.884Z,35.90
2023-01-25T18:21:24.318Z,40.85
2023-01-25T18:23:56.906Z,31.65
2023-01-25T18:26:33.484Z,31.17
2023-01-25T18:29:08.575Z,32.20
2023-01-25T18:31:35.931Z,30.60
2023-01-25T18:34:02.807Z,32.75
2023-01-25T18:36:29.550Z,30.33
2023-01-25T18:38:58.275Z,28.25
2023-01-25T18:41:24.979Z,31.20
2023-01-25T18:43:51.824Z,28.52
2023-01-25T18:46:18.564Z,31.50
2023-01-25T18:48:47.214Z,32.45
2023-01-25T18:51:17.405Z,30.20
2023-01-25T18:53:46.974Z,26.25
2023-01-25T18:56:19.103Z,27.65
2023-01-25T19:01:18.981Z,22.80
2023-01-25T19:03:47.387Z,26.65
2023-01-25T19:06:15.127Z,27.30
2023-01-25T19:08:44.154Z,27.98
2023-01-25T19:11:14.064Z,25.67
2023-01-25T19:13:41.981Z,25.50
2023-01-25T19:16:15.560Z,25.75
2023-01-25T19:18:48.256Z,25.45
2023-01-25T19:21:17.691Z,26.92
2023-01-25T19:23:44.725Z,28.50
2023-01-25T19:26:15.195Z,28.05
2023-01-25T19:28:42.826Z,24.88
2023-01-25T19:31:15.381Z,31.95
2023-01-25T19:33:42.568Z,39.03
2023-01-25T19:36:15.538Z,29.33
2023-01-25T19:38:43.344Z,28.77
2023-01-25T19:41:12.885Z,31.15
2023-01-25T19:43:43.735Z,33.22
2023-01-25T19:46:16.013Z,28.08
2023-01-25T19:51:16.239Z,26.83
2023-01-25T19:53:48.728Z,26.20
2023-01-25T19:56:17.780Z,32.15
2023-01-25T19:58:46.333Z,25.60
2023-01-25T20:01:15.250Z,28.98
2023-01-25T20:03:42.857Z,27.58
2023-01-25T20:06:11.156Z,29.88
2023-01-25T20:08:40.129Z,26.58
2023-01-25T20:11:14.198Z,28.45
2023-01-25T20:13:42.136Z,28.95
2023-01-25T20:16:10.401Z,26.98
2023-01-25T20:18:37.263Z,27.48
2023-01-25T20:21:11.164Z,30.20
2023-01-25T20:23:40.178Z,33.22
2023-01-25T20:26:08.667Z,30.55
2023-01-25T20:28:36.789Z,30.55
2023-01-25T20:31:04.999Z,30.92
2023-01-25T20:33:33.042Z,29.67
2023-01-25T20:36:01.557Z,28.65
2023-01-25T20:38:33.183Z,28.77
2023-01-25T20:41:05.492Z,28.88
2023-01-25T20:46:00.256Z,26.45
2023-01-25T20:48:28.638Z,31.10
2023-01-25T20:51:03.167Z,34.63
2023-01-25T20:53:30.471Z,33.30
2023-01-25T20:55:58.718Z,36.15
2023-01-25T20:58:25.887Z,27.83
2023-01-25T21:00:53.172Z,30.13
2023-01-25T21:03:20.208Z,30.70
2023-01-25T21:05:55.187Z,29.80
2023-01-25T21:08:22.998Z,27.63
2023-01-25T21:10:55.506Z,26.92
2023-01-25T21:13:22.755Z,29.42
2023-01-25T21:16:10.134Z,27.13
2023-01-25T21:18:42.370Z,28.40
2023-01-25T21:23:39.299Z,28.55
2023-01-25T21:26:07.681Z,28.30
2023-01-25T21:28:35.132Z,31.13
2023-01-25T21:31:35.268Z,27.88
2023-01-25T21:34:03.061Z,24.88
2023-01-25T21:36:30.021Z,26.38
2023-01-25T21:38:58.107Z,26.88
2023-01-25T21:41:27.193Z,27.48
2023-01-25T21:44:14.800Z,31.98
2023-01-25T21:46:43.535Z,30.25
2023-01-25T21:49:33.031Z,29.30
2023-01-25T21:52:02.033Z,25.13
2023-01-25T21:54:34.794Z,29.42
2023-01-25T21:57:04.517Z,26.45
2023-01-25T21:59:33.508Z,27.92
2023-01-25T22:02:00.239Z,28.75
2023-01-25T22:04:27.269Z,29.70
2023-01-25T22:06:54.741Z,30.48
2023-01-25T22:09:22.492Z,29.23
2023-01-25T22:11:50.728Z,27.30
2023-01-25T22:14:27.379Z,27.77
2023-01-25T22:16:58.021Z,28.52
2023-01-25T22:19:24.861Z,26.42
2023-01-25T22:21:54.599Z,24.85
2023-01-25T22:24:22.120Z,24.40
2023-01-25T22:27:30.580Z,25.50
2023-01-25T22:29:57.395Z,30.50
2023-01-25T22:32:24.104Z,30.02
2023-01-25T22:34:50.857Z,24.92
2023-01-25T22:37:17.608Z,26.15
2023-01-25T22:39:45.535Z,25.88
2023-01-25T22:42:12.272Z,22.48
2023-01-25T22:44:39.055Z,20.70
2023-01-25T22:47:06.143Z,28.92
2023-01-25T22:49:35.705Z,24.10
2023-01-25T22:52:08.337Z,26.25
2023-01-25T22:54:35.138Z,27.90
2023-01-25T22:57:04.131Z,23.98
2023-01-25T22:59:33.858Z,24.75
2023-01-25T23:02:03.062Z,23.90
2023-01-25T23:04:30.536Z,22.45
2023-01-25T23:07:02.849Z,23.90
2023-01-25T23:09:31.966Z,29.25
2023-01-25T23:12:01.655Z,23.40
2023-01-25T23:14:49.969Z,23.17
2023-01-25T23:17:38.156Z,22.58
2023-01-25T23:20:06.928Z,28.00
2023-01-25T23:22:33.690Z,24.67
2023-01-25T23:25:04.084Z,27.60
2023-01-25T23:27:30.829Z,28.17
2023-01-25T23:29:57.627Z,25.95
2023-01-25T23:32:24.386Z,28.02
2023-01-25T23:34:54.322Z,26.55
2023-01-25T23:37:22.117Z,29.80
2023-01-25T23:39:52.382Z,23.30
2023-01-25T23:42:19.350Z,29.60
2023-01-25T23:44:49.045Z,22.73
2023-01-25T23:47:16.670Z,26.35
2023-01-25T23:49:43.427Z,24.65
2023-01-25T23:52:10.186Z,25.45
2023-01-25T23:54:39.759Z,23.52
2023-01-25T23:57:06.462Z,25.33
2023-01-25T23:59:33.986Z,23.38
